LFPO 172000Z 19004KT CAVOK 06/05 Q1025 NOSIG

ElémentsDécodage
LFPO Station météo située sur l'aérodrome de PARIS Orly
172000Z émis le 17 du mois à 20h00 UTC
19004KT vent du 190°, 04 noeuds
CAVOK Ceiling And Visibility OK
- Visibilité de 10 Km ou plus
- Pas de nuage au-dessous de 1500m ou au-dessous de l'altitude minimale du secteur la plus élevée (si>1500m) et absence de CB
- pas de temps présent significatif
06/05 température 06°C, point de rosée 05°C
 soit une humidité relative de 93%
Q1025 la pression au niveau de la mer (QNH) est de 1025 hPa
NOSIG Pas de changement significatif prévu au cours des deux heures suivant l'heure de l'observation